Tiempo atmosférico en la estación meteorológica de Pedraza de Alba, Salamanca (897 m.)



Fecha
DESCASC
Temp. máxima en grados centígrados (hora)
DESCASC
Temp. mínima en grados centígrados (hora)
DESCASC
Temp. media en grados centígrados
DESCASC
Racha de viento máxima en m/sg (hora)
DESCASC
Velocidad máxima media en intervalos de 10 minutos(hora)
DESCASC
Precipitaciones diarias en mm
DESCASC
Precipitaciones de 00:00 a 06:00 en mm
DESCASC
Precipitaciones de 06:00 a 12:00 en mm
DESCASC
Precipitaciones de 12:00 a 18:00 en mm
DESCASC
Precipitaciones de 18:00 a 24:00 en mm
DESCASC
17-03-2019 13.8 (16:50) 1.5 (07:50) 7.7 7.5 (17:30) 4.17 (23:30) 0 0 0 0 0
16-03-2019 21.2 (14:10) -0.1 (04:20) 10.6 11.11 (16:50) 5.56 (17:00) 0 0 0 0 0
15-03-2019 20 (16:00) -2.1 (06:40) 9 4.44 (15:00) 2.5 (15:00) 0 0 0 0 0
14-03-2019 14.6 (17:10) -4.6 (-00:0) 5 5.83 (13:00) 3.61 (13:20) 0 0 0 0 0
13-03-2019 10.5 (16:20) 0.5 (23:59) 5.5 8.61 (05:30) 5.56 (05:40) 0.2 0.2 0 0 0
12-03-2019 18.6 (16:10) 0.8 (00:00) 9.7 11.11 (12:10) 5.83 (10:40) 0 0 0 0 0
11-03-2019 15.3 (16:50) 2.3 (00:00) 8.8 8.33 (13:50) 3.89 (13:10) 0 0 0 0 0
10-03-2019 19.2 (16:40) 3 (00:00) 11.1 6.11 (14:40) 3.33 (14:40) 0 0 0 0 0
09-03-2019 16.1 (18:40) -0.1 (00:00) 8 3.61 (14:10) 1.67 (02:30) 0 0 0 0 0
08-03-2019 10.7 (16:30) 2.7 (00:00) 6.7 5.83 (14:00) 2.78 (15:10) 1 1 0 0 0
07-03-2019 9.4 (13:30) -0.6 (-00:0) 4.4 11.67 (16:50) 6.67 (14:30) 2.6 0 0 0 2.6
06-03-2019 11.2 (01:30) 4 (00:00) 7.6 16.67 (11:40) 9.17 (11:40) 14.8 0.2 11.6 3 0
05-03-2019 14 (16:30) 2.3 (00:00) 8.1 12.5 (16:40) 6.94 (12:40) 0.2 0 0 0 0.2
04-03-2019 12.9 (16:30) 6.7 (00:00) 9.8 12.78 (05:40) 6.67 (05:20) 0.2 0 0.2 0 0
03-03-2019 18.5 (13:50) 2 (00:00) 10.3 12.78 (17:40) 7.78 (18:00) 0 0 0 0 0
02-03-2019 17.4 (16:40) -0.4 (00:00) 8.5 5.83 (17:00) 2.22 (17:00) 0 0 0 0 0
01-03-2019 -- (--) -- (--) -- -- (--) -- (--) -- 0 0 -- 0
28-02-2019 14.2 (16:40) -1.1 (-00:0) 6.5 5.56 (14:50) 3.61 (14:50) 0 0 0 0 0
27-02-2019 17.8 (15:00) -0.9 (-00:0) 8.4 7.5 (16:30) 4.44 (16:20) 0 0 0 0 0
26-02-2019 20.3 (15:00) -0.1 (00:00) 10.1 8.06 (15:50) 3.89 (16:10) 0 0 0 0 0
25-02-2019 18.6 (16:30) -0.6 (-00:0) 9 4.72 (13:20) 2.78 (15:10) 0 0 0 0 0
24-02-2019 17.3 (16:40) -2.3 (-00:0) 7.5 5.28 (02:40) 3.06 (02:40) 0 0 0 0 0
23-02-2019 15.7 (15:10) -0.9 (-00:0) 7.4 4.72 (16:50) 1.94 (15:00) 0 0 0 0 0
22-02-2019 17.8 (15:50) -3.1 (-00:0) 7.3 5 (16:40) 2.5 (16:40) 0 0 0 0 0
21-02-2019 16.7 (15:50) -1.9 (08:50) 7.4 6.67 (16:20) 3.33 (16:20) 0 0 0 0 0
20-02-2019 13.6 (16:40) -0.8 (08:30) 6.4 7.22 (13:40) 3.89 (13:00) 0.4 0.4 0 0 0

Gráficas

Temp. máximas Temp. mínimas Temp. medias Precipitaciones Rachas de viento máximas Velocidades máximas media en intervalos de 10 minutos

Datos horarios

Fecha y hora oficial Temperatura (ºC) Velocidad del viento (km/h) Dirección del viento Racha (km/h) Dirección de racha Precipitación (mm) Presión (hPa) Tendencia (hPa) Humedad (%)
2019-03-21 23:00:00 0.8 0 Calma 6 Sur 0 -- -- 69
2019-03-21 22:00:00 2.5 3 Sur 6 Sur 0 -- -- 62
2019-03-21 21:00:00 4 2 Sur 4 Sur 0 -- -- 60
2019-03-21 20:00:00 8.5 0 Calma 12 Nordeste 0 -- -- 45
2019-03-21 19:00:00 11.2 8 Norte 13 Norte 0 -- -- 36
2019-03-21 18:00:00 12.8 9 Nordeste 17 Norte 0 -- -- 31
2019-03-21 17:00:00 13.2 8 Norte 18 Norte 0 -- -- 29
2019-03-21 16:00:00 13.2 12 Norte 22 Norte 0 -- -- 31
2019-03-21 15:00:00 13.3 7 Norte 23 Norte 0 -- -- 35
2019-03-21 14:00:00 12.3 10 Norte 22 Nordeste 0 -- -- 39
2019-03-21 13:00:00 11.5 12 Norte 24 Norte 0 -- -- 44
2019-03-21 12:00:00 9.2 10 Norte 18 Norte 0 -- -- 53
2019-03-21 11:00:00 6.4 5 Norte 12 Norte 0 -- -- 59
2019-03-21 10:00:00 3.1 3 Norte 6 Norte 0 -- -- 68
2019-03-21 09:00:00 -0.4 2 Norte 4 Nordeste 0 -- -- 81
2019-03-21 08:00:00 -5.1 0 Calma 5 Sur 0 -- -- 91
2019-03-21 07:00:00 -6 2 Sur 3 Sudeste 0 -- -- 89
2019-03-21 06:00:00 -5.2 2 Sur 3 Sur 0 -- -- 89
2019-03-21 05:00:00 -4.8 0 Calma 5 Sur 0 -- -- 87
2019-03-21 04:00:00 -3.7 0 Calma 3 Sur 0 -- -- 85
2019-03-21 03:00:00 -2.5 0 Calma 3 Este 0 -- -- 80
2019-03-21 02:00:00 -0.4 3 Nordeste 4 Noroeste 0 -- -- 76
2019-03-21 01:00:00 0.6 0 Calma 8 Este 0 -- -- 71
2019-03-21 00:00:00 0.4 2 Sudeste 6 Sur 0 -- -- 73
2019-03-20 23:00:00 1.2 3 Este 9 Este 0 -- -- 69
2019-03-20 22:00:00 2.4 2 Sudeste 5 Sudeste 0 -- -- 66
2019-03-20 21:00:00 3.6 2 Sudeste 4 Sur 0 -- -- 63
2019-03-20 20:00:00 7.4 4 Norte 17 Norte 0 -- -- 50
2019-03-20 19:00:00 10.2 9 Norte 22 Nordeste 0 -- -- 44
2019-03-20 18:00:00 11.5 13 Nordeste 23 Norte 0 -- -- 38
2019-03-20 17:00:00 11.7 9 Nordeste 27 Norte 0 -- -- 38
2019-03-20 16:00:00 11.5 14 Nordeste 28 Nordeste 0 -- -- 39
2019-03-20 15:00:00 11 12 Este 29 Este 0 -- -- 41
2019-03-20 14:00:00 10 12 Este 30 Nordeste 0 -- -- 44
2019-03-20 13:00:00 8.7 15 Nordeste 34 Nordeste 0 -- -- 53
2019-03-20 12:00:00 7.2 16 Nordeste 30 Nordeste 0 -- -- 57
2019-03-20 11:00:00 5.4 14 Nordeste 24 Este 0 -- -- 66
2019-03-20 10:00:00 4.4 14 Nordeste 24 Nordeste 0 -- -- 74
2019-03-20 09:00:00 2.9 8 Este 14 Este 0 -- -- 83
2019-03-20 08:00:00 -2.2 3 Norte 5 Este 0 -- -- 95
2019-03-20 07:00:00 -3.4 2 Nordeste 5 Este 0 -- -- 92
2019-03-20 06:00:00 -2.6 0 Calma 5 Sur 0 -- -- 91
2019-03-20 05:00:00 -0.4 0 Calma 12 Este 0 -- -- 89
2019-03-20 04:00:00 -0.1 4 Sudeste 7 Sudeste 0 -- -- 88
2019-03-20 03:00:00 0.1 3 Sudeste 8 Este 0 -- -- 87
2019-03-20 02:00:00 1.2 3 Este 8 Este 0 -- -- 83
2019-03-20 01:00:00 1.6 4 Nordeste 7 Nordeste 0 -- -- 81
2019-03-20 00:00:00 3 3 Nordeste 9 Nordeste 0 -- -- 77
2019-03-19 23:00:00 4.1 7 Este 13 Este 0 -- -- 76
2019-03-19 22:00:00 5 7 Este 16 Este 0 -- -- 71
2019-03-19 21:00:00 5.7 4 Sudeste 11 Este 0 -- -- 66
2019-03-19 20:00:00 7.5 4 Nordeste 23 Este 0 -- -- 56
2019-03-19 19:00:00 10 14 Nordeste 34 Norte 0 -- -- 48
2019-03-19 18:00:00 11.2 19 Nordeste 32 Nordeste 0 -- -- 42
2019-03-19 17:00:00 11.1 18 Nordeste 37 Nordeste 0 -- -- 45
2019-03-19 16:00:00 11.2 20 Nordeste 38 Nordeste 0 -- -- 48
2019-03-19 15:00:00 11.4 19 Nordeste 34 Nordeste 0 -- -- 48
2019-03-19 14:00:00 9.9 15 Nordeste 34 Nordeste 0 -- -- 51
2019-03-19 13:00:00 10.2 14 Nordeste 32 Nordeste 0 -- -- 54
2019-03-19 12:00:00 9.3 14 Este 27 Nordeste 0 -- -- 57
2019-03-19 11:00:00 8 14 Nordeste 28 Este 0 -- -- 59
2019-03-19 10:00:00 6.6 17 Nordeste 29 Nordeste 0 -- -- 63
2019-03-19 09:00:00 4.6 12 Este 20 Nordeste 0 -- -- 74
2019-03-19 08:00:00 -0.2 2 Nordeste 4 Nordeste 0 -- -- 84
2019-03-19 07:00:00 -0.2 3 Nordeste 7 Nordeste 0 -- -- 84
2019-03-19 06:00:00 -1.2 5 Nordeste 8 Nordeste 0 -- -- 88
2019-03-19 05:00:00 -1.8 2 Nordeste 4 Este 0 -- -- 89
2019-03-19 04:00:00 -1.1 0 Calma 5 Nordeste 0 -- -- 87
2019-03-19 03:00:00 -0.8 3 Nordeste 6 Nordeste 0 -- -- 82
2019-03-19 02:00:00 0.2 0 Calma 4 Nordeste 0 -- -- 78
2019-03-19 01:00:00 0.7 0 Calma 3 Norte 0 -- -- 76
2019-03-19 00:00:00 1.8 0 Calma 8 Sudeste 0 -- -- 70
2019-03-18 23:00:00 1.6 4 Sur 6 Sur 0 -- -- 71
2019-03-18 22:00:00 3.1 0 Calma 3 Este 0 -- -- 65
2019-03-18 21:00:00 5.1 2 Sudeste 13 Nordeste 0 -- -- 57
2019-03-18 20:00:00 7.3 8 Nordeste 17 Norte 0 -- -- 50
2019-03-18 19:00:00 9.4 10 Nordeste 22 Nordeste 0 -- -- 45
2019-03-18 18:00:00 10.4 13 Nordeste 30 Norte 0 -- -- 43
2019-03-18 17:00:00 10.9 18 Nordeste 28 Norte 0 -- -- 42
2019-03-18 16:00:00 11 16 Nordeste 30 Nordeste 0 -- -- 45
2019-03-18 15:00:00 10.2 18 Nordeste 31 Nordeste 0 -- -- 43
2019-03-18 14:00:00 9.8 14 Nordeste 35 Nordeste 0 -- -- 44
2019-03-18 13:00:00 8.5 20 Nordeste 35 Nordeste 0 -- -- 46
2019-03-18 12:00:00 7.4 18 Nordeste 33 Nordeste 0 -- -- 51
2019-03-18 11:00:00 5.9 20 Nordeste 33 Este 0 -- -- 54
2019-03-18 10:00:00 4.1 17 Nordeste 27 Nordeste 0 -- -- 59
2019-03-18 09:00:00 1.7 8 Este 17 Nordeste 0 -- -- 73
2019-03-18 08:00:00 -1.4 3 Nordeste 9 Este 0 -- -- 83
2019-03-18 07:00:00 -1.1 3 Nordeste 10 Nordeste 0 -- -- 79
2019-03-18 06:00:00 0.4 6 Nordeste 16 Nordeste 0 -- -- 77
2019-03-18 05:00:00 1.4 10 Nordeste 22 Nordeste 0 -- -- 73
2019-03-18 04:00:00 2.8 9 Nordeste 28 Este 0 -- -- 68
2019-03-18 03:00:00 4.2 17 Nordeste 33 Este 0 -- -- 65
2019-03-18 02:00:00 4.8 15 Nordeste 31 Este 0 -- -- 71
2019-03-18 01:00:00 5.5 17 Nordeste 35 Este 0 -- -- 70
2019-03-18 00:00:00 6.2 14 Nordeste 27 Nordeste 0 -- -- 71
2019-03-17 23:00:00 6 3 Este 10 Nordeste 0 -- -- 78
2019-03-17 22:00:00 5.5 3 Sur 6 Sudeste 0 -- -- 77
2019-03-17 21:00:00 8 2 Sudoeste 8 Oeste 0 -- -- 64
2019-03-17 20:00:00 9.6 4 Oeste 14 Noroeste 0 -- -- 60
2019-03-17 19:00:00 11.4 8 Noroeste 22 Noroeste 0 -- -- 56
2019-03-17 18:00:00 13.4 9 Noroeste 27 Noroeste 0 -- -- 50
2019-03-17 17:00:00 13.7 13 Noroeste 24 Noroeste 0 -- -- 55
2019-03-17 16:00:00 13.5 10 Noroeste 20 Oeste 0 -- -- 55
2019-03-17 15:00:00 13.3 7 Noroeste 16 Noroeste 0 -- -- 55
2019-03-17 14:00:00 12 5 Noroeste 13 Noroeste 0 -- -- 61
2019-03-17 13:00:00 10.6 4 Noroeste 13 Oeste 0 -- -- 62
2019-03-17 12:00:00 8.7 6 Sudoeste 14 Oeste 0 -- -- 70
2019-03-17 11:00:00 6.5 7 Oeste 14 Noroeste 0 -- -- 78
2019-03-17 10:00:00 5.7 10 Sudoeste 22 Oeste 0 -- -- 82
2019-03-17 09:00:00 3.6 10 Oeste 23 Oeste 0 -- -- 89
2019-03-17 08:00:00 1.5 4 Noroeste 11 Sudoeste 0 -- -- 80
2019-03-17 07:00:00 4.4 8 Sudoeste 21 Sudoeste 0 -- -- 66
2019-03-17 06:00:00 5.1 13 Sudoeste 19 Sudoeste 0 -- -- 65
2019-03-17 05:00:00 2.5 4 Sudoeste 7 Sudoeste 0 -- -- 78
2019-03-17 04:00:00 4.8 3 Sur 9 Sur 0 -- -- 71
2019-03-17 03:00:00 4.7 4 Sur 8 Sudeste -- -- -- 75
2019-03-17 02:00:00 6.5 3 Sur 15 Sudoeste 0 -- -- 66
2019-03-17 01:00:00 9.4 9 Sudoeste 16 Oeste 0 -- -- 57
2019-03-17 00:00:00 9 6 Sudoeste 13 Sur 0 -- -- 58
2019-03-16 23:00:00 10.4 7 Sudoeste 12 Sudoeste 0 -- -- 53
2019-03-16 22:00:00 11.9 7 Sudoeste 16 Sudoeste 0 -- -- 46
2019-03-16 21:00:00 12.3 8 Sudoeste 13 Sudoeste 0 -- -- 41
2019-03-16 20:00:00 13.9 5 Sudoeste 18 Sudoeste 0 -- -- 37
2019-03-16 19:00:00 17.5 8 Sudoeste 25 Sudoeste 0 -- -- 30
2019-03-16 18:00:00 19.8 13 Oeste 35 Oeste 0 -- -- 25
2019-03-16 17:00:00 20.4 20 Oeste 40 Sudoeste 0 -- -- 24
2019-03-16 16:00:00 20.9 13 Oeste 33 Oeste 0 -- -- 28
2019-03-16 15:00:00 21 10 Oeste 28 Sudoeste 0 -- -- 26
2019-03-16 14:00:00 21.1 13 Oeste 23 Sudoeste 0 -- -- 25
2019-03-16 13:00:00 20.3 9 Oeste 25 Sudoeste 0 -- -- 28
2019-03-16 12:00:00 20.6 12 Sudoeste 24 Oeste 0 -- -- 24
2019-03-16 11:00:00 18.1 6 Noroeste 13 Oeste 0 -- -- 33
2019-03-16 10:00:00 12.8 2 Norte 4 Norte 0 -- -- 60
2019-03-16 09:00:00 6.3 0 Calma 5 Sudeste 0 -- -- 69
2019-03-16 08:00:00 1.1 3 Sur 6 Sudoeste 0 -- -- 78
2019-03-16 07:00:00 1.1 0 Calma 4 Sudeste 0 -- -- 78
2019-03-16 06:00:00 0.7 0 Calma 5 Sur 0 -- -- 76
2019-03-16 05:00:00 0.4 2 Sur 5 Sur 0 -- -- 79
2019-03-16 04:00:00 0.1 2 Sur 5 Sur 0 -- -- 78
2019-03-16 03:00:00 1.1 0 Calma 4 Sudeste 0 -- -- 74
2019-03-16 02:00:00 2.3 0 Calma 5 Sur 0 -- -- 72
2019-03-16 01:00:00 1.8 3 Sur 5 Sur 0 -- -- 72
2019-03-16 00:00:00 2.6 5 Sur 8 Sudeste 0 -- -- 69
2019-03-15 23:00:00 3.1 3 Sur 6 Sur 0 -- -- 68
2019-03-15 22:00:00 4.6 4 Sur 8 Sur 0 -- -- 64
2019-03-15 21:00:00 6.4 4 Sur 5 Sur 0 -- -- 57
2019-03-15 20:00:00 12.1 0 Calma 5 Norte 0 -- -- 43
2019-03-15 19:00:00 17.1 3 Norte 9 Nordeste 0 -- -- 30
2019-03-15 18:00:00 19.2 6 Nordeste 12 Nordeste 0 -- -- 23
2019-03-15 17:00:00 19.8 7 Norte 14 Nordeste 0 -- -- 21
2019-03-15 16:00:00 20 8 Nordeste 15 Norte 0 -- -- 21
2019-03-15 15:00:00 19.6 9 Norte 16 Norte 0 -- -- 25
2019-03-15 14:00:00 19 6 Norte 13 Nordeste 0 -- -- 18
2019-03-15 13:00:00 17.7 5 Nordeste 12 Nordeste 0 -- -- 25
2019-03-15 12:00:00 15.6 5 Norte 9 Nordeste 0 -- -- 36
2019-03-15 11:00:00 12.5 5 Norte 8 Norte 0 -- -- 47
2019-03-15 10:00:00 9.7 3 Norte 6 Norte 0 -- -- 55
2019-03-15 09:00:00 4.8 0 Calma 6 Sudeste 0 -- -- 67
2019-03-15 08:00:00 -1.5 3 Sur 6 Sudeste 0 -- -- 82
2019-03-15 07:00:00 -2 4 Sur 6 Sudeste 0 -- -- 83
2019-03-15 06:00:00 -1.4 0 Calma 5 Sudeste 0 -- -- 78
2019-03-15 05:00:00 -1.5 4 Sur 6 Sur 0 -- -- 77
2019-03-15 04:00:00 -0.8 3 Sur 8 Sur 0 -- -- 72
2019-03-15 03:00:00 0.2 4 Sur 8 Sur 0 -- -- 67
2019-03-15 02:00:00 -0.3 3 Sur 7 Sur 0 -- -- 70
2019-03-15 01:00:00 0.5 3 Sur 8 Sur 0 -- -- 67
2019-03-15 00:00:00 0.5 4 Sur 6 Sur 0 -- -- 69
2019-03-14 23:00:00 1.5 4 Sur 8 Sur 0 -- -- 67
2019-03-14 22:00:00 2.5 4 Sur 8 Sur 0 -- -- 65
2019-03-14 21:00:00 3.5 4 Sur 8 Sur 0 -- -- 59
2019-03-14 20:00:00 6.2 2 Sur 5 Sur 0 -- -- 56
2019-03-14 19:00:00 12.9 2 Noroeste 7 Norte 0 -- -- 34
2019-03-14 18:00:00 14.3 3 Norte 9 Norte 0 -- -- 28
2019-03-14 17:00:00 14.3 4 Norte 9 Norte 0 -- -- 27
2019-03-14 16:00:00 13.9 3 Norte 14 Nordeste 0 -- -- 36
2019-03-14 15:00:00 13.2 4 Norte 16 Norte 0 -- -- 35
2019-03-14 14:00:00 12 8 Norte 21 Norte 0 -- -- 42
2019-03-14 13:00:00 11.2 13 Norte 21 Norte 0 -- -- 45
2019-03-14 12:00:00 9.8 8 Nordeste 14 Nordeste 0 -- -- 43
2019-03-14 11:00:00 7.9 4 Nordeste 10 Nordeste 0 -- -- 53
2019-03-14 10:00:00 5 4 Norte 8 Nordeste 0 -- -- 70
2019-03-14 09:00:00 -0.4 0 Calma 4 Sur 0 -- -- 88
2019-03-14 08:00:00 -4.6 0 Calma 4 Sur 0 -- -- 93
2019-03-14 07:00:00 -4.2 0 Calma 4 Sur 0 -- -- 92
2019-03-14 06:00:00 -3.8 2 Sur 4 Sudeste 0 -- -- 93
2019-03-14 05:00:00 -3.4 3 Sur 4 Sur 0 -- -- 91
2019-03-14 04:00:00 -2.4 0 Calma 4 Sur 0 -- -- 89
2019-03-14 03:00:00 -1.7 0 Calma 5 Sur 0 -- -- 84
2019-03-14 02:00:00 -0.9 2 Sur 4 Sur 0 -- -- 84
2019-03-14 01:00:00 1.8 0 Calma 12 Nordeste 0 -- -- 74
2019-03-14 00:00:00 0.5 2 Sudeste 5 Norte 0 -- -- 80
2019-03-13 23:00:00 0.6 2 Sudeste 8 Sur 0 -- -- 81
2019-03-13 22:00:00 2 2 Sudoeste 5 Sur 0 -- -- 76
2019-03-13 21:00:00 4 3 Sur 5 Sur 0 -- -- 69
2019-03-13 20:00:00 6.3 2 Este 9 Este 0 -- -- 58
2019-03-13 19:00:00 8.8 6 Nordeste 17 Norte 0 -- -- 50
2019-03-13 18:00:00 9.2 10 Norte 18 Norte 0 -- -- 49
2019-03-13 17:00:00 10.4 9 Norte 22 Noroeste 0 -- -- 47
2019-03-13 16:00:00 10.1 10 Norte 26 Norte 0 -- -- 46
2019-03-13 15:00:00 9.8 10 Norte 24 Noroeste 0 -- -- 49
2019-03-13 14:00:00 8.3 12 Norte 24 Norte 0 -- -- 52
2019-03-13 13:00:00 8.3 11 Norte 22 Norte 0 -- -- 52
2019-03-13 12:00:00 7 15 Norte 24 Norte 0 -- -- 56
2019-03-13 11:00:00 5.9 8 Nordeste 20 Nordeste 0 -- -- 59
2019-03-13 10:00:00 4.6 9 Nordeste 18 Nordeste 0 -- -- 68
2019-03-13 09:00:00 3.5 6 Nordeste 10 Nordeste 0 -- -- 76
2019-03-13 08:00:00 2.1 3 Nordeste 15 Norte 0 -- -- 83
2019-03-13 07:00:00 3.2 8 Norte 25 Norte 0 -- -- 82
2019-03-13 06:00:00 4.4 10 Norte 31 Norte 0 -- -- 88
2019-03-13 05:00:00 5.7 7 Norte 26 Norte 0.2 -- -- 93
2019-03-13 04:00:00 7.3 6 Oeste 18 Oeste 0 -- -- 88
2019-03-13 03:00:00 7.5 5 Oeste 17 Sudoeste 0 -- -- 88
2019-03-13 02:00:00 7.4 6 Sudoeste 13 Sudoeste 0 -- -- 85
2019-03-13 01:00:00 7.1 6 Sudoeste 13 Sudoeste 0 -- -- 85
2019-03-13 00:00:00 7.7 6 Sudoeste 14 Sudoeste 0 -- -- 81
2019-03-12 23:00:00 8.4 4 Sudoeste 15 Oeste 0 -- -- 80
2019-03-12 22:00:00 9.2 8 Sudoeste 17 Oeste 0 -- -- 77
2019-03-12 21:00:00 10.8 11 Oeste 21 Oeste 0 -- -- 73
2019-03-12 20:00:00 12.5 9 Oeste 18 Oeste 0 -- -- 63
2019-03-12 19:00:00 14.8 9 Oeste 36 Oeste 0 -- -- 53
2019-03-12 18:00:00 17.1 16 Oeste 37 Noroeste 0 -- -- 42
2019-03-12 17:00:00 18.2 19 Sudoeste 35 Oeste 0 -- -- 48
2019-03-12 16:00:00 18.5 15 Sudoeste 34 Sudoeste 0 -- -- 46
2019-03-12 15:00:00 18.3 18 Sudoeste 31 Oeste 0 -- -- 44
2019-03-12 14:00:00 18 14 Sudoeste 31 Oeste 0 -- -- 42
2019-03-12 13:00:00 17.3 18 Sudoeste 40 Oeste 0 -- -- 41
2019-03-12 12:00:00 16.4 19 Oeste 33 Oeste 0 -- -- 49
2019-03-12 11:00:00 15 19 Sudoeste 35 Sudoeste 0 -- -- 56
2019-03-12 10:00:00 13.6 13 Sudoeste 23 Sudoeste 0 -- -- 58
2019-03-12 09:00:00 7.5 4 Sur 7 Sudeste 0 -- -- 82
2019-03-12 08:00:00 1.7 3 Sur 4 Sur 0 -- -- 96
2019-03-12 07:00:00 0.8 0 Calma 2 Sudoeste 0 -- -- 95
2019-03-12 06:00:00 1.6 2 Sudoeste 4 Sudoeste 0 -- -- 96
2019-03-12 05:00:00 0.9 0 Calma 4 Sur 0 -- -- 95
2019-03-12 04:00:00 1.2 0 Calma 4 Sur 0 -- -- 96
2019-03-12 03:00:00 0.9 3 Sur 4 Sur 0 -- -- 94
2019-03-12 02:00:00 1.5 3 Sur 5 Sur 0 -- -- 96
2019-03-12 01:00:00 2 3 Sur 7 Sur 0 -- -- 93
2019-03-12 00:00:00 2.3 0 Calma 5 Sur 0 -- -- 90
2019-03-11 23:00:00 3.1 4 Sur 5 Sur 0 -- -- 89
2019-03-11 22:00:00 3.4 3 Sur 5 Sur 0 -- -- 86
2019-03-11 21:00:00 5.1 3 Sur 4 Sur 0 -- -- 82
2019-03-11 20:00:00 9.7 0 Calma 9 Norte 0 -- -- 70
2019-03-11 19:00:00 12.6 6 Norte 13 Norte 0 -- -- 57
2019-03-11 18:00:00 14.9 7 Norte 17 Norte 0 -- -- 51
2019-03-11 17:00:00 15.3 9 Nordeste 19 Nordeste 0 -- -- 50
2019-03-11 16:00:00 15.1 12 Nordeste 22 Nordeste 0 -- -- 52
2019-03-11 15:00:00 14.5 12 Nordeste 24 Nordeste 0 -- -- 54
2019-03-11 14:00:00 14.1 13 Nordeste 30 Norte 0 -- -- 59
2019-03-11 13:00:00 13.4 13 Nordeste 24 Nordeste 0 -- -- 65
2019-03-11 12:00:00 11.8 13 Nordeste 21 Nordeste 0 -- -- 72
2019-03-11 11:00:00 10.5 10 Este 23 Este 0 -- -- 82
2019-03-11 10:00:00 8.3 12 Este 22 Nordeste 0 -- -- 92
2019-03-11 09:00:00 6.2 6 Nordeste 12 Nordeste 0 -- -- 100
2019-03-11 08:00:00 4.3 0 Calma 7 Nordeste 0 -- -- 100
2019-03-11 07:00:00 3 0 Calma 4 Sudeste 0 -- -- 98
2019-03-11 06:00:00 3.7 2 Sur 5 Sur 0 -- -- 97
2019-03-11 05:00:00 4.1 4 Sur 5 Sur 0 -- -- 97
2019-03-11 04:00:00 4.8 3 Sur 4 Sur 0 -- -- 96
2019-03-11 03:00:00 6 2 Sur 5 Sur 0 -- -- 94
2019-03-11 02:00:00 6.6 2 Sur 5 Sur 0 -- -- 94
2019-03-11 01:00:00 6.3 3 Sur 8 Sur 0 -- -- 94
2019-03-11 00:00:00 6.9 5 Sur 8 Sudeste 0 -- -- 92
2019-03-10 23:00:00 7.2 2 Sur 8 Sudeste 0 -- -- 89
2019-03-10 22:00:00 8.3 3 Sur 6 Sur 0 -- -- 86
2019-03-10 21:00:00 11.6 4 Oeste 10 Noroeste 0 -- -- 72
2019-03-10 20:00:00 13.5 5 Oeste 10 Noroeste 0 -- -- 69
2019-03-10 19:00:00 16.7 4 Noroeste 13 Noroeste 0 -- -- 55
2019-03-10 18:00:00 18.4 6 Noroeste 18 Noroeste 0 -- -- 47
2019-03-10 17:00:00 18.7 9 Noroeste 19 Noroeste 0 -- -- 41
2019-03-10 16:00:00 18.8 7 Noroeste 21 Noroeste 0 -- -- 40
2019-03-10 15:00:00 18.6 12 Noroeste 22 Noroeste 0 -- -- 46
2019-03-10 14:00:00 18.3 8 Noroeste 18 Noroeste 0 -- -- 55
2019-03-10 13:00:00 17.3 8 Oeste 17 Noroeste 0 -- -- 55
2019-03-10 12:00:00 16.3 8 Oeste 16 Oeste 0 -- -- 64
2019-03-10 11:00:00 15.6 6 Sudoeste 14 Sur 0 -- -- 66
2019-03-10 10:00:00 13.6 6 Sudoeste 13 Sudoeste 0 -- -- 76
2019-03-10 09:00:00 8.2 5 Sur 8 Sudeste 0 -- -- 89
2019-03-10 08:00:00 3.2 3 Sur 8 Sur 0 -- -- 98
2019-03-10 07:00:00 3.2 3 Sur 6 Sudoeste 0 -- -- 96
2019-03-10 06:00:00 3.5 0 Calma 7 Sur 0 -- -- 94
2019-03-10 05:00:00 4.1 3 Sur 8 Noroeste 0 -- -- 91
2019-03-10 04:00:00 5.4 2 Sur 7 Sur 0 -- -- 91
2019-03-10 03:00:00 5.5 5 Sur 10 Sur 0 -- -- 91
2019-03-10 02:00:00 6 5 Sur 8 Sur 0 -- -- 89
2019-03-10 01:00:00 6.4 5 Sur 8 Sur 0 -- -- 89
2019-03-10 00:00:00 5.9 3 Sur 6 Sudoeste 0 -- -- 89
2019-03-09 23:00:00 6.4 4 Sur 7 Sur 0 -- -- 87
2019-03-09 22:00:00 6.7 4 Sur 6 Sur 0 -- -- 86
2019-03-09 21:00:00 7.6 4 Sur 5 Sudeste 0 -- -- 83
2019-03-09 20:00:00 10.5 3 Sur 4 Sur 0 -- -- 77
2019-03-09 19:00:00 15.5 0 Calma 5 Nordeste 0 -- -- 59
2019-03-09 18:00:00 15.9 0 Calma 10 Norte 0 -- -- 53
2019-03-09 17:00:00 15.9 5 Norte 12 Norte 0 -- -- 53
2019-03-09 16:00:00 15.7 6 Noroeste 13 Norte 0 -- -- 53
2019-03-09 15:00:00 15.4 3 Noroeste 13 Noroeste 0 -- -- 51
2019-03-09 14:00:00 14.3 5 Norte 12 Norte 0 -- -- 51
2019-03-09 13:00:00 13.2 4 Nordeste 10 Norte 0 -- -- 57
2019-03-09 12:00:00 12 2 Oeste 9 Norte 0 -- -- 59
2019-03-09 11:00:00 10.1 4 Norte 8 Norte 0 -- -- 65
2019-03-09 10:00:00 7.8 3 Norte 6 Norte 0 -- -- 76
2019-03-09 09:00:00 3.6 0 Calma 5 Sur 0 -- -- 92
2019-03-09 08:00:00 0 2 Noroeste 4 Sur 0 -- -- 95
2019-03-09 07:00:00 0.6 0 Calma 7 Sur 0 -- -- 94
2019-03-09 06:00:00 0.5 2 Sur 6 Noroeste 0 -- -- 93
2019-03-09 05:00:00 0.9 4 Sur 6 Sudeste 0 -- -- 92
2019-03-09 04:00:00 1.7 0 Calma 5 Sur 0 -- -- 91
2019-03-09 03:00:00 2.6 3 Sur 9 Sur 0 -- -- 84
2019-03-09 02:00:00 2.9 4 Sur 10 Sur 0 -- -- 85
2019-03-09 01:00:00 3 4 Sur 8 Sur 0 -- -- 86
2019-03-09 00:00:00 2.9 3 Sur 8 Sur 0 -- -- 87
2019-03-08 23:00:00 3.2 4 Sur 9 Sur 0 -- -- 87
2019-03-08 22:00:00 2.7 4 Sur 6 Sur 0 -- -- 89
2019-03-08 21:00:00 3.5 3 Sur 5 Sur 0 -- -- 85
2019-03-08 20:00:00 6.3 3 Sur 5 Norte 0 -- -- 76
2019-03-08 19:00:00 8.8 4 Norte 13 Norte 0 -- -- 64
2019-03-08 18:00:00 10 8 Norte 15 Norte 0 -- -- 58
2019-03-08 17:00:00 10.4 9 Nordeste 16 Nordeste 0 -- -- 59
2019-03-08 16:00:00 9.8 9 Nordeste 19 Norte 0 -- -- 58
2019-03-08 15:00:00 10.2 7 Norte 17 Nordeste 0 -- -- 67
2019-03-08 14:00:00 9.2 9 Nordeste 21 Nordeste 0 -- -- 69
2019-03-08 13:00:00 8.7 5 Norte 14 Nordeste 0 -- -- 72
2019-03-08 12:00:00 7.5 4 Norte 12 Norte 0 -- -- 79
2019-03-08 11:00:00 6.2 7 Norte 11 Norte 0 -- -- 87
2019-03-08 10:00:00 5.3 2 Norte 8 Noroeste 0 -- -- 91
2019-03-08 09:00:00 5 0 Calma 4 Noroeste 0 -- -- 95
2019-03-08 08:00:00 4.7 0 Calma 4 Oeste 0 -- -- 95
2019-03-08 07:00:00 4.8 2 Oeste 9 Oeste 0 -- -- 95
2019-03-08 06:00:00 4.8 4 Oeste 9 Sudoeste 0 -- -- 94
2019-03-08 05:00:00 4.8 5 Sudoeste 8 Sudoeste 0 -- -- 95
2019-03-08 04:00:00 5 3 Sudoeste 6 Oeste 0 -- -- 95
2019-03-08 03:00:00 5 2 Sudoeste 9 Sudoeste 0 -- -- 96
2019-03-08 02:00:00 4.9 3 Sudoeste 13 Sudoeste 0.2 -- -- 96
2019-03-08 01:00:00 4.6 5 Sudoeste 9 Sudoeste 0.8 -- -- 98
2019-03-08 00:00:00 3.5 5 Sudoeste 9 Sudoeste 0 -- -- 96
2019-03-07 23:00:00 4.3 4 Sudoeste 15 Sudoeste 0 -- -- 93
2019-03-07 22:00:00 5.1 10 Sudoeste 20 Sudoeste 0.2 -- -- 91
2019-03-07 21:00:00 5.5 8 Sudoeste 14 Sudoeste 0.6 -- -- 92
2019-03-07 20:00:00 5.3 9 Sur 33 Sudoeste 1.4 -- -- 88
2019-03-07 19:00:00 6.5 11 Sudoeste 30 Sudoeste 0.4 -- -- 78
2019-03-07 18:00:00 7.7 19 Sudoeste 40 Sudoeste 0 -- -- 68
2019-03-07 17:00:00 8.5 21 Sudoeste 42 Sudoeste 0 -- -- 66
2019-03-07 16:00:00 8.6 22 Sudoeste 41 Sudoeste 0 -- -- 64
2019-03-07 15:00:00 8.3 18 Sudoeste 37 Sudoeste 0 -- -- 64
2019-03-07 14:00:00 9.1 20 Sudoeste 41 Sudoeste 0 -- -- 59
2019-03-07 13:00:00 9.2 15 Oeste 31 Sudoeste 0 -- -- 56
2019-03-07 12:00:00 7.8 14 Sudoeste 27 Sur 0 -- -- 57
2019-03-07 11:00:00 6.4 13 Sudoeste 25 Sudoeste 0 -- -- 61
2019-03-07 10:00:00 5.4 11 Sudoeste 19 Sudoeste 0 -- -- 68
2019-03-07 09:00:00 2.6 6 Sudoeste 13 Sudoeste 0 -- -- 82
2019-03-07 08:00:00 0 3 Sur 8 Sudoeste 0 -- -- 89
2019-03-07 07:00:00 0.4 4 Sudoeste 9 Sudoeste 0 -- -- 90
2019-03-07 06:00:00 0.5 5 Sudoeste 10 Sudoeste 0 -- -- 92
2019-03-07 05:00:00 1.3 3 Sur 9 Sudoeste 0 -- -- 90
2019-03-07 04:00:00 3.1 7 Sudoeste 17 Sudoeste 0 -- -- 86
2019-03-07 03:00:00 3.3 8 Sudoeste 14 Sudoeste 0 -- -- 85
2019-03-07 02:00:00 3.2 9 Sudoeste 24 Sudoeste 0 -- -- 85
2019-03-07 01:00:00 3.8 8 Sudoeste 22 Sudoeste 0 -- -- 86
2019-03-07 00:00:00 4 13 Oeste 30 Sudoeste 0 -- -- 83
2019-03-06 23:00:00 4.4 14 Sudoeste 31 Oeste 0 -- -- 84
2019-03-06 22:00:00 4.7 18 Oeste 43 Sudoeste 0 -- -- 81
2019-03-06 21:00:00 5.6 18 Sudoeste 37 Sur 0 -- -- 81
2019-03-06 20:00:00 5.7 19 Sudoeste 44 Sudoeste 0 -- -- 81
2019-03-06 19:00:00 5.8 22 Sudoeste 45 Sudoeste 0 -- -- 81
2019-03-06 18:00:00 7.3 21 Sudoeste 42 Sudoeste 0 -- -- 71
2019-03-06 17:00:00 8.5 25 Sudoeste 46 Oeste 0.2 -- -- 61
2019-03-06 16:00:00 6.7 17 Oeste 46 Sudoeste 0 -- -- 82
2019-03-06 15:00:00 6.6 19 Oeste 45 Oeste 0 -- -- 83
2019-03-06 14:00:00 5 21 Oeste 52 Oeste 1.8 -- -- 90
2019-03-06 13:00:00 7.2 28 Sudoeste 53 Sudoeste 1 -- -- 89
2019-03-06 12:00:00 7.2 24 Sudoeste 60 Sudoeste 1.8 -- -- 89
2019-03-06 11:00:00 7.3 17 Sur 35 Sur 0.8 -- -- 91
2019-03-06 10:00:00 6.6 20 Sudoeste 54 Sudoeste 4.6 -- -- 92
2019-03-06 09:00:00 7.4 16 Sur 36 Sur 2.8 -- -- 89
2019-03-06 08:00:00 7.5 14 Sur 49 Sudoeste 1.6 -- -- 88
2019-03-06 07:00:00 9.2 24 Sudoeste 55 Sur 0 -- -- 69
2019-03-06 06:00:00 9.7 23 Sur 55 Sur 0 -- -- 58
2019-03-06 05:00:00 9.5 17 Sur 45 Sur 0 -- -- 62
2019-03-06 04:00:00 10.2 23 Sudoeste 46 Sur 0 -- -- 62
2019-03-06 03:00:00 10.2 19 Sudoeste 43 Sudoeste 0 -- -- 78
2019-03-06 02:00:00 10.9 18 Sudoeste 47 Sudoeste 0.2 -- -- 73
2019-03-06 01:00:00 10.9 18 Sudoeste 39 Oeste 0 -- -- 75
2019-03-06 00:00:00 10.5 12 Sudoeste 23 Sudoeste 0 -- -- 83
2019-03-05 23:00:00 10.6 13 Sur 29 Sur 0.2 -- -- 82
2019-03-05 22:00:00 11.7 12 Sudoeste 32 Sur 0 -- -- 72
2019-03-05 21:00:00 11.2 13 Sur 34 Sudoeste 0 -- -- 71
2019-03-05 20:00:00 11.5 15 Sur 37 Sur 0 -- -- 70
2019-03-05 19:00:00 12.1 12 Sur 30 Sudoeste 0 -- -- 63
2019-03-05 18:00:00 12.9 15 Sur 36 Sudoeste 0 -- -- 58
2019-03-05 17:00:00 13 18 Sudoeste 45 Sudoeste 0 -- -- 59
2019-03-05 16:00:00 13.5 21 Sudoeste 37 Oeste 0 -- -- 59
2019-03-05 15:00:00 12.2 16 Sudoeste 36 Sudoeste 0 -- -- 62
2019-03-05 14:00:00 12.8 18 Sudoeste 38 Sudoeste 0 -- -- 56
2019-03-05 13:00:00 12.1 24 Sudoeste 43 Sudoeste 0 -- -- 55
2019-03-05 12:00:00 10.9 22 Sudoeste 38 Sudoeste 0 -- -- 60
2019-03-05 11:00:00 9.8 15 Sudoeste 38 Sudoeste 0 -- -- 69
2019-03-05 10:00:00 8.3 14 Sudoeste 27 Sudoeste 0 -- -- 72
2019-03-05 09:00:00 5.8 7 Sudoeste 15 Sudoeste 0 -- -- 83
2019-03-05 08:00:00 2.7 0 Calma 6 Sur 0 -- -- 89
2019-03-05 07:00:00 4 4 Sudoeste 12 Sudoeste 0 -- -- 88
2019-03-05 06:00:00 4.1 2 Sudoeste 9 Sudoeste 0 -- -- 84
2019-03-05 05:00:00 5 4 Sudoeste 6 Sudoeste 0 -- -- 83
2019-03-05 04:00:00 5 2 Oeste 4 Oeste 0 -- -- 83
2019-03-05 03:00:00 5.2 3 Sur 5 Sur 0 -- -- 82
2019-03-05 02:00:00 5.3 0 Calma 5 Sudoeste 0 -- -- 80
2019-03-05 01:00:00 6.1 3 Sudoeste 5 Sudoeste 0 -- -- 77
2019-03-05 00:00:00 6.7 3 Sudoeste 9 Oeste 0 -- -- 73
2019-03-04 23:00:00 7.1 4 Oeste 14 Noroeste 0 -- -- 70
2019-03-04 22:00:00 7.4 4 Oeste 9 Oeste 0 -- -- 69
2019-03-04 21:00:00 8.3 3 Sudoeste 15 Sudoeste 0 -- -- 68
2019-03-04 20:00:00 9.4 6 Oeste 28 Sudoeste 0 -- -- 65
2019-03-04 19:00:00 10.2 15 Sudoeste 32 Sudoeste 0 -- -- 65
2019-03-04 18:00:00 11.4 18 Sudoeste 34 Sudoeste 0 -- -- 62
2019-03-04 17:00:00 12.2 21 Sudoeste 34 Sudoeste 0 -- -- 60
2019-03-04 16:00:00 12.5 14 Sudoeste 28 Sudoeste 0 -- -- 53
2019-03-04 15:00:00 12.2 14 Oeste 30 Oeste 0 -- -- 53
2019-03-04 14:00:00 12.1 14 Oeste 30 Oeste 0 -- -- 53
2019-03-04 13:00:00 11.5 15 Oeste 31 Oeste 0 -- -- 56
2019-03-04 12:00:00 10.1 15 Oeste 31 Oeste 0 -- -- 63
2019-03-04 11:00:00 8.8 9 Oeste 28 Sudoeste 0 -- -- 75
2019-03-04 10:00:00 7.6 9 Sudoeste 32 Oeste 0 -- -- 82
2019-03-04 09:00:00 6.9 13 Oeste 36 Oeste 0.2 -- -- 89
2019-03-04 08:00:00 8.2 14 Sudoeste 29 Sudoeste 0 -- -- 93
2019-03-04 07:00:00 8.4 15 Sudoeste 31 Sudoeste 0 -- -- 93
2019-03-04 06:00:00 8.4 18 Sudoeste 46 Sudoeste 0 -- -- 94
2019-03-04 05:00:00 9 20 Sudoeste 43 Sudoeste 0 -- -- 86
2019-03-04 04:00:00 9.4 21 Sudoeste 35 Sudoeste 0 -- -- 80
2019-03-04 03:00:00 9.6 17 Sudoeste 32 Sudoeste 0 -- -- 72
2019-03-04 02:00:00 8.1 11 Sur 26 Sudoeste 0 -- -- 75
2019-03-04 01:00:00 8.4 17 Sudoeste 35 Sudoeste 0 -- -- 78
2019-03-04 00:00:00 8.6 17 Sudoeste 35 Oeste 0 -- -- 69
2019-03-03 23:00:00 9 15 Sudoeste 32 Sudoeste 0 -- -- 57
2019-03-03 22:00:00 9.9 16 Sudoeste 37 Sudoeste 0 -- -- 59
2019-03-03 21:00:00 10.6 22 Sudoeste 36 Sudoeste 0 -- -- 61
2019-03-03 20:00:00 11.7 11 Sudoeste 35 Sudoeste 0 -- -- 54
2019-03-03 19:00:00 13.2 21 Sudoeste 45 Oeste 0 -- -- 46
2019-03-03 18:00:00 14.6 28 Sudoeste 46 Oeste 0 -- -- 43
2019-03-03 17:00:00 16 24 Sudoeste 42 Sudoeste 0 -- -- 38
2019-03-03 16:00:00 17.3 18 Sudoeste 36 Oeste 0 -- -- 32
2019-03-03 15:00:00 17 15 Sudoeste 39 Sudoeste 0 -- -- 35
2019-03-03 14:00:00 18.5 20 Sudoeste 41 Sudoeste 0 -- -- 35
2019-03-03 13:00:00 16.9 21 Sudoeste 35 Oeste 0 -- -- 36
2019-03-03 12:00:00 16.3 16 Sudoeste 30 Sudoeste 0 -- -- 45
2019-03-03 11:00:00 14.5 16 Sudoeste 37 Sudoeste 0 -- -- 46
2019-03-03 10:00:00 12.1 17 Sudoeste 36 Sudoeste 0 -- -- 56
2019-03-03 09:00:00 9.1 10 Sudoeste 20 Sudoeste 0 -- -- 56
2019-03-03 08:00:00 8.9 13 Sudoeste 25 Sudoeste 0 -- -- 44
2019-03-03 07:00:00 4.7 4 Sur 10 Sudoeste 0 -- -- 55
2019-03-03 06:00:00 3.4 5 Sudoeste 11 Sudoeste 0 -- -- 56
2019-03-03 05:00:00 2.3 0 Calma 4 Sur 0 -- -- 65
2019-03-03 04:00:00 2.9 0 Calma 9 Sudoeste 0 -- -- 63
2019-03-03 03:00:00 3.3 4 Sur 8 Sudoeste 0 -- -- 64
2019-03-03 02:00:00 4.3 0 Calma 6 Oeste 0 -- -- 62
2019-03-03 01:00:00 6.1 4 Sur 10 Sudeste 0 -- -- 50
2019-03-03 00:00:00 6 4 Sur 10 Sur 0 -- -- 60
2019-03-02 23:00:00 5.9 6 Sur 10 Sur 0 -- -- 61
2019-03-02 22:00:00 5.5 6 Sur 12 Sudeste 0 -- -- 64
2019-03-02 21:00:00 6.6 5 Sur 9 Sur 0 -- -- 61
2019-03-02 20:00:00 7.9 4 Sur 6 Sur 0 -- -- 57
2019-03-02 19:00:00 14.7 2 Oeste 10 Noroeste 0 -- -- 41
2019-03-02 18:00:00 16.6 6 Noroeste 15 Norte 0 -- -- 34
2019-03-02 17:00:00 17.1 8 Norte 21 Norte 0 -- -- 31
2019-03-02 16:00:00 17.3 4 Norte 15 Norte 0 -- -- 25
2019-03-02 15:00:00 16.7 7 Noroeste 12 Noroeste 0 -- -- 27
2019-03-02 14:00:00 16 3 Oeste 12 Sudeste 0 -- -- 37
2019-03-02 13:00:00 14 3 Noroeste 10 Sur 0 -- -- 49
2019-03-02 12:00:00 13 5 Sudeste 15 Sudeste 0 -- -- 59
2019-03-02 11:00:00 10.9 4 Este 13 Este 0 -- -- 66
2019-03-02 10:00:00 7.4 0 Calma 4 Sudeste 0 -- -- 91
2019-03-02 09:00:00 2.1 0 Calma 5 Sur 0 -- -- 98
2019-03-02 08:00:00 -0.4 3 Sur 4 Sur 0 -- -- 96
2019-03-02 07:00:00 0.3 2 Sur 7 Sur 0 -- -- 95
2019-03-02 06:00:00 1.7 0 Calma 3 Sur 0 -- -- 91
2019-03-02 05:00:00 3.4 2 Sur 5 Sur 0 -- -- 92
2019-03-02 04:00:00 4.3 2 Sur 6 Sur 0 -- -- 90
2019-03-02 03:00:00 4.2 4 Sur 7 Sudeste 0 -- -- 91
2019-03-02 02:00:00 3.1 3 Sur 5 Sur 0 -- -- 88
2019-03-02 01:00:00 4 2 Sur 6 Sur 0 -- -- 85
2019-03-02 00:00:00 5.7 3 Sur 6 Sur 0 -- -- 79
2019-03-01 23:00:00 5.5 3 Sur 5 Sur 0 -- -- 76
2019-03-01 22:00:00 5 2 Sur 8 Oeste 0 -- -- 73
2019-03-01 21:00:00 6.4 3 Oeste 9 Oeste 0 -- -- 68
2019-03-01 20:00:00 9.1 2 Oeste 8 Oeste 0 -- -- 56
2019-03-01 19:00:00 13.3 4 Noroeste 13 Noroeste 0 -- -- 44
2019-03-01 18:00:00 15.4 8 Norte 18 Norte 0 -- -- 36
2019-03-01 17:00:00 16.1 5 Noroeste 11 Norte 0 -- -- 34
2019-03-01 16:00:00 16.1 8 Norte 13 Norte 0 -- -- 34
2019-03-01 15:00:00 15.7 8 Norte 16 Norte 0 -- -- 33
2019-03-01 14:00:00 15.9 5 Norte 15 Nordeste 0 -- -- 36
2019-03-01 13:00:00 14.9 6 Nordeste -- -- -- -- -- 41
2019-03-01 12:00:00 11.9 6 Norte 10 Norte 0 -- -- 58
2019-03-01 11:00:00 9 5 Norte 9 Norte 0 -- -- 65
2019-03-01 10:00:00 4.7 4 Norte 8 Norte 0 -- -- 86
2019-03-01 09:00:00 -1.1 2 Norte 4 Norte 0 -- -- 95
2019-03-01 08:00:00 -3.2 0 Calma 4 Sur 0 -- -- 96
2019-03-01 07:00:00 -2.8 3 Sur 4 Sur 0 -- -- 93
2019-03-01 06:00:00 -2.3 2 Sur 4 Sur 0 -- -- 93
2019-03-01 05:00:00 -1.6 0 Calma 5 Sudeste 0 -- -- 92
2019-03-01 04:00:00 -1.2 3 Sur 5 Sur 0 -- -- 91
2019-03-01 03:00:00 -0.8 3 Sur 4 Sudeste 0 -- -- 88
2019-03-01 02:00:00 0.2 0 Calma 3 Sur 0 -- -- 88
2019-03-01 01:00:00 1 3 Sur 6 Sudeste 0 -- -- 86
2019-03-01 00:00:00 1.9 2 Norte 3 Norte 0 -- -- 85
2019-02-28 23:00:00 2.2 0 Calma 5 Sur 0 -- -- 81
2019-02-28 22:00:00 2.9 4 Sur 5 Sur 0 -- -- 79
2019-02-28 21:00:00 3.9 4 Sur 6 Sudeste 0 -- -- 77
2019-02-28 20:00:00 7.1 3 Sur 4 Sudeste 0 -- -- 68
2019-02-28 19:00:00 11.9 2 Norte 13 Nordeste 0 -- -- 52
2019-02-28 18:00:00 13.7 7 Nordeste 14 Nordeste 0 -- -- 47
2019-02-28 17:00:00 14.1 9 Nordeste 15 Norte 0 -- -- 45
2019-02-28 16:00:00 14.1 9 Nordeste 18 Nordeste 0 -- -- 48
2019-02-28 15:00:00 14 11 Nordeste 20 Nordeste 0 -- -- 49
2019-02-28 14:00:00 13.8 9 Nordeste 19 Nordeste 0 -- -- 52
2019-02-28 13:00:00 13.2 10 Nordeste 19 Nordeste 0 -- -- 55
2019-02-28 12:00:00 11.2 5 Norte 13 Norte 0 -- -- 64
2019-02-28 11:00:00 9.3 5 Norte 10 Norte 0 -- -- 73
2019-02-28 10:00:00 5.4 0 Calma 2 Sudeste 0 -- -- 85
2019-02-28 09:00:00 0.4 0 Calma 3 Sur 0 -- -- 95
2019-02-28 08:00:00 -1 0 Calma 6 Sur 0 -- -- 93
2019-02-28 07:00:00 -0.6 2 Sur 5 Sudeste 0 -- -- 92
2019-02-28 06:00:00 -0.4 3 Sur 5 Sudeste 0 -- -- 90
2019-02-28 05:00:00 0 3 Sur 5 Sur 0 -- -- 91
2019-02-28 04:00:00 -0.1 3 Sur 6 Sudeste 0 -- -- 88
2019-02-28 03:00:00 0.2 4 Sur 6 Sur 0 -- -- 85
2019-02-28 02:00:00 1.2 3 Sur 6 Sur 0 -- -- 82
2019-02-28 01:00:00 2.1 2 Sudoeste 10 Sur 0 -- -- 79
2019-02-28 00:00:00 3 5 Sur 10 Sur 0 -- -- 77
2019-02-27 23:00:00 2.8 3 Sur 9 Sur 0 -- -- 77
2019-02-27 22:00:00 3.7 4 Sur 6 Sur 0 -- -- 75
2019-02-27 21:00:00 5.5 2 Sur 9 Sur 0 -- -- 67
2019-02-27 20:00:00 7.6 2 Sur 7 Sudeste 0 -- -- 59
2019-02-27 19:00:00 12.2 3 Sudoeste 15 Sudoeste 0 -- -- 45
2019-02-27 18:00:00 14.1 9 Sudoeste 23 Sudoeste 0 -- -- 38
2019-02-27 17:00:00 15.8 15 Sudoeste 27 Sudoeste 0 -- -- 34
2019-02-27 16:00:00 17 13 Oeste 23 Sudoeste 0 -- -- 32
2019-02-27 15:00:00 17.8 4 Oeste 17 Oeste 0 -- -- 26
2019-02-27 14:00:00 16.6 9 Oeste 19 Noroeste 0 -- -- 30
2019-02-27 13:00:00 15.4 11 Oeste 19 Noroeste 0 -- -- 33
2019-02-27 12:00:00 14.5 8 Oeste 17 Oeste 0 -- -- 35
2019-02-27 11:00:00 12.7 10 Sudoeste 21 Oeste 0 -- -- 41
2019-02-27 10:00:00 9.6 3 Sur 6 Sudoeste 0 -- -- 49
2019-02-27 09:00:00 1.7 2 Sur 8 Sur 0 -- -- 74
2019-02-27 08:00:00 -0.5 4 Sur 8 Sur 0 -- -- 70
2019-02-27 07:00:00 -0.3 3 Sur 8 Sur 0 -- -- 71
2019-02-27 06:00:00 -0.1 5 Sur 9 Sur 0 -- -- 70
2019-02-27 05:00:00 0.3 3 Sudoeste 5 Sudoeste 0 -- -- 71
2019-02-27 04:00:00 1.3 2 Nordeste 8 Nordeste 0 -- -- 67
2019-02-27 03:00:00 2.9 3 Sudeste 9 Sur 0 -- -- 59
2019-02-27 02:00:00 5.1 5 Sur 9 Sudeste 0 -- -- 52
2019-02-27 01:00:00 8.9 6 Sudoeste 15 Oeste 0 -- -- 41
2019-02-27 00:00:00 10.5 3 Sudoeste 16 Sur 0 -- -- 35
2019-02-26 23:00:00 11 8 Sudeste 20 Sudeste 0 -- -- 35
2019-02-26 22:00:00 7.9 3 Sur 12 Sur 0 -- -- 47
2019-02-26 21:00:00 8.9 0 Calma 11 Sur 0 -- -- 46
2019-02-26 20:00:00 10.9 6 Sur 12 Sur 0 -- -- 38
2019-02-26 19:00:00 15.8 8 Sur 18 Sur 0 -- -- 26
2019-02-26 18:00:00 18.9 7 Sur 21 Sudeste 0 -- -- 26
2019-02-26 17:00:00 19.7 10 Sur 25 Sudeste 0 -- -- 25
2019-02-26 16:00:00 20 13 Sur 29 Sur 0 -- -- 26
2019-02-26 15:00:00 20.3 7 Sudeste 18 Sudeste 0 -- -- 27
2019-02-26 14:00:00 18.7 5 Nordeste 19 Este 0 -- -- 34
2019-02-26 13:00:00 16.8 6 Norte 12 Norte 0 -- -- 43
2019-02-26 12:00:00 15.5 6 Norte 12 Norte 0 -- -- 48
2019-02-26 11:00:00 12.8 4 Norte 8 Nordeste 0 -- -- 57
2019-02-26 10:00:00 11.5 0 Calma 8 Sur 0 -- -- 63
2019-02-26 09:00:00 4.2 5 Sur 9 Sur 0 -- -- 74
2019-02-26 08:00:00 0.2 2 Sur 4 Sudeste 0 -- -- 90
2019-02-26 07:00:00 0.2 2 Sur 6 Sur 0 -- -- 92
2019-02-26 06:00:00 0.4 0 Calma 6 Sur 0 -- -- 87
2019-02-26 05:00:00 1 4 Sur 6 Sudeste 0 -- -- 88
2019-02-26 04:00:00 2.1 3 Sur 6 Sudeste 0 -- -- 84
2019-02-26 03:00:00 2.1 0 Calma 6 Sudoeste 0 -- -- 84
2019-02-26 02:00:00 2.2 3 Sur 6 Sur 0 -- -- 84
2019-02-26 01:00:00 3.1 0 Calma 5 Sudeste 0 -- -- 82
2019-02-26 00:00:00 3.7 3 Sur 8 Sur 0 -- -- 78
2019-02-25 23:00:00 4.7 3 Sur 5 Sur 0 -- -- 76
2019-02-25 22:00:00 5.3 4 Sur 6 Sur 0 -- -- 75
2019-02-25 21:00:00 5.8 3 Sur 5 Sur 0 -- -- 71
2019-02-25 20:00:00 9.1 3 Sur 5 Sur 0 -- -- 60
2019-02-25 19:00:00 15.4 3 Noroeste 8 Noroeste 0 -- -- 43
2019-02-25 18:00:00 17.1 6 Norte 11 Noroeste 0 -- -- 40
2019-02-25 17:00:00 18.1 5 Norte 13 Norte 0 -- -- 35
2019-02-25 16:00:00 17.9 6 Norte 15 Noroeste 0 -- -- 31
2019-02-25 15:00:00 18.3 6 Noroeste 13 Norte 0 -- -- 36
2019-02-25 14:00:00 17.3 9 Norte 17 Noroeste 0 -- -- 37
2019-02-25 13:00:00 16.6 7 Oeste 17 Noroeste 0 -- -- 41
2019-02-25 12:00:00 15 6 Noroeste 13 Oeste 0 -- -- 43
2019-02-25 11:00:00 11.6 2 Norte 5 Nordeste 0 -- -- 61
2019-02-25 10:00:00 7.3 0 Calma 3 Noroeste 0 -- -- 75
2019-02-25 09:00:00 0.9 2 Norte 5 Sur 0 -- -- 86
2019-02-25 08:00:00 -0.6 0 Calma 2 Sur 0 -- -- 86
2019-02-25 07:00:00 1.7 0 Calma 8 Sur 0 -- -- 79
2019-02-25 06:00:00 1.9 5 Sur 9 Sudeste 0 -- -- 79
2019-02-25 05:00:00 1 0 Calma 5 Sur 0 -- -- 82
2019-02-25 04:00:00 1.2 0 Calma 5 Noroeste 0 -- -- 83
2019-02-25 03:00:00 1.8 0 Calma 6 Sur 0 -- -- 79
2019-02-25 02:00:00 2.1 4 Sur 6 Sur 0 -- -- 80
2019-02-25 01:00:00 1.7 3 Sur 6 Sur 0 -- -- 81
2019-02-25 00:00:00 2.7 3 Sur 6 Sur 0 -- -- 81
2019-02-24 23:00:00 3.3 3 Sur 7 Sudeste 0 -- -- 82
2019-02-24 22:00:00 4.1 4 Sur 7 Sudeste 0 -- -- 80
2019-02-24 21:00:00 5.6 0 Calma 4 Sur 0 -- -- 74
2019-02-24 20:00:00 9 3 Sur 5 Sur 0 -- -- 65
2019-02-24 19:00:00 14.8 2 Norte 8 Noroeste 0 -- -- 45
2019-02-24 18:00:00 16.6 5 Norte 8 Norte 0 -- -- 39
2019-02-24 17:00:00 17.3 3 Norte 8 Nordeste 0 -- -- 34
2019-02-24 16:00:00 16.9 3 Noroeste 9 Norte 0 -- -- 35
2019-02-24 15:00:00 15.6 3 Noroeste 8 Norte 0 -- -- 41
2019-02-24 14:00:00 13.7 4 Noroeste 10 Norte 0 -- -- 49
2019-02-24 13:00:00 11.6 5 Norte 14 Norte 0 -- -- 57
2019-02-24 12:00:00 10 4 Noroeste 10 Norte 0 -- -- 64
2019-02-24 11:00:00 8.2 2 Noroeste 8 Noroeste 0 -- -- 65
2019-02-24 10:00:00 4.9 0 Calma 5 Oeste 0 -- -- 78
2019-02-24 09:00:00 -1.2 2 Sur 4 Sur 0 -- -- 95
2019-02-24 08:00:00 -1.9 0 Calma 4 Sur 0 -- -- 94
2019-02-24 07:00:00 -1.1 0 Calma 5 Sur 0 -- -- 84
2019-02-24 06:00:00 1.2 3 Sudoeste 5 Sudeste 0 -- -- 82
2019-02-24 05:00:00 4 4 Noroeste 7 Noroeste 0 -- -- 74
2019-02-24 04:00:00 5.5 2 Norte 14 Este 0 -- -- 67
2019-02-24 03:00:00 6.5 10 Sudeste 19 Sudeste 0 -- -- 67
2019-02-24 02:00:00 4.7 3 Sudeste 8 Sudeste 0 -- -- 74
2019-02-24 01:00:00 3.7 0 Calma 7 Sur 0 -- -- 77
2019-02-24 00:00:00 2.2 5 Sur 8 Sur 0 -- -- 82
2019-02-23 23:00:00 2.9 4 Sur 7 Sur 0 -- -- 78
2019-02-23 22:00:00 4.1 2 Oeste 9 Noroeste 0 -- -- 76
2019-02-23 21:00:00 4 3 Sur 6 Sur 0 -- -- 72
2019-02-23 20:00:00 8.4 0 Calma 3 Sudeste 0 -- -- 62
2019-02-23 19:00:00 12.7 0 Calma 7 Nordeste 0 -- -- 51
2019-02-23 18:00:00 14.6 3 Nordeste 8 Nordeste 0 -- -- 41
2019-02-23 17:00:00 15.2 6 Nordeste 17 Este 0 -- -- 39
2019-02-23 16:00:00 15.6 2 Norte 13 Norte 0 -- -- 35
2019-02-23 15:00:00 15.3 7 Norte 14 Nordeste 0 -- -- 35
2019-02-23 14:00:00 14.9 3 Este 12 Nordeste 0 -- -- 39
2019-02-23 13:00:00 14.2 4 Nordeste 10 Nordeste 0 -- -- 40
2019-02-23 12:00:00 13.4 5 Este 9 Este 0 -- -- 45
2019-02-23 11:00:00 11 0 Calma 4 Norte 0 -- -- 58
2019-02-23 10:00:00 5.4 0 Calma 3 Sudeste 0 -- -- 74
2019-02-23 09:00:00 0.6 0 Calma 3 Sur 0 -- -- 86
2019-02-23 08:00:00 -0.5 0 Calma 7 Noroeste 0 -- -- 82
2019-02-23 07:00:00 -0.5 2 Noroeste 7 Noroeste 0 -- -- 82
2019-02-23 06:00:00 -0.4 3 Sur 4 Sudeste 0 -- -- 84
2019-02-23 05:00:00 -0.5 0 Calma 5 Sur 0 -- -- 82
2019-02-23 04:00:00 -0.4 0 Calma 3 Noroeste 0 -- -- 83
2019-02-23 03:00:00 1.1 0 Calma 6 Sur 0 -- -- 75
2019-02-23 02:00:00 2.6 3 Sur 8 Sur 0 -- -- 72
2019-02-23 01:00:00 2.8 4 Sur 9 Sur 0 -- -- 72
2019-02-23 00:00:00 2.8 5 Sur 9 Sudeste 0 -- -- 73
2019-02-22 23:00:00 3.5 4 Sur 8 Sur 0 -- -- 70
2019-02-22 22:00:00 3.2 3 Sur 6 Sur 0 -- -- 69
2019-02-22 21:00:00 5.4 4 Sur 7 Sudeste 0 -- -- 64
2019-02-22 20:00:00 8.1 3 Sur 8 Sudeste 0 -- -- 53
2019-02-22 19:00:00 13.7 5 Sudoeste 8 Sudoeste 0 -- -- 39
2019-02-22 18:00:00 15.9 4 Norte 12 Norte 0 -- -- 32
2019-02-22 17:00:00 16.6 6 Norte 18 Noroeste 0 -- -- 29
2019-02-22 16:00:00 17.6 7 Noroeste 15 Norte 0 -- -- 28
2019-02-22 15:00:00 16.8 6 Noroeste 14 Oeste 0 -- -- 27
2019-02-22 14:00:00 16 4 Noroeste 14 Norte 0 -- -- 31
2019-02-22 13:00:00 14.6 6 Norte 14 Noroeste 0 -- -- 34
2019-02-22 12:00:00 13.3 6 Noroeste 11 Norte 0 -- -- 42
2019-02-22 11:00:00 10.5 4 Norte 6 Norte 0 -- -- 49
2019-02-22 10:00:00 5.2 0 Calma 6 Sudoeste 0 -- -- 73
2019-02-22 09:00:00 -0.4 0 Calma 7 Sur 0 -- -- 81
2019-02-22 08:00:00 -2.6 0 Calma 6 Sudeste 0 -- -- 87
2019-02-22 07:00:00 -2.7 0 Calma 5 Sur 0 -- -- 85
2019-02-22 06:00:00 -2.6 0 Calma 4 Sur 0 -- -- 85
2019-02-22 05:00:00 -2.1 2 Sur 4 Sur 0 -- -- 85
2019-02-22 04:00:00 -1.4 3 Sur 5 Sur 0 -- -- 84
2019-02-22 03:00:00 -0.4 0 Calma 4 Noroeste 0 -- -- 79
2019-02-22 02:00:00 0 0 Calma 2 Sudeste 0 -- -- 79
2019-02-22 01:00:00 1 0 Calma 2 Oeste 0 -- -- 81
2019-02-22 00:00:00 1.5 0 Calma 7 Sur 0 -- -- 76
2019-02-21 23:00:00 1.6 5 Sur 7 Sudeste 0 -- -- 76
2019-02-21 22:00:00 2.9 4 Sur 6 Sudeste 0 -- -- 69
2019-02-21 21:00:00 6.7 0 Calma 11 Sur 0 -- -- 57
2019-02-21 20:00:00 8.9 7 Sur 12 Sur 0 -- -- 49
2019-02-21 19:00:00 12.2 5 Sudoeste 14 Sur 0 -- -- 40
2019-02-21 18:00:00 15 8 Sudoeste 20 Sudoeste 0 -- -- 31
2019-02-21 17:00:00 16 10 Sudoeste 24 Sudoeste 0 -- -- 29
2019-02-21 16:00:00 16.6 10 Sudoeste 23 Sudeste 0 -- -- 30
2019-02-21 15:00:00 16.4 9 Sudoeste 22 Sudoeste 0 -- -- 32
2019-02-21 14:00:00 15.7 6 Sudeste 12 Sudeste 0 -- -- 32
2019-02-21 13:00:00 15.1 5 Sur 14 Sudeste 0 -- -- 42
2019-02-21 12:00:00 13 4 Norte 9 Norte 0 -- -- 49
2019-02-21 11:00:00 9.4 3 Norte 5 Norte 0 -- -- 74
2019-02-21 10:00:00 3.7 0 Calma 2 Noroeste 0 -- -- 90
2019-02-21 09:00:00 -1.7 0 Calma 6 Sur 0 -- -- 94
2019-02-21 08:00:00 -1.7 0 Calma 6 Sudeste 0 -- -- 90
2019-02-21 07:00:00 -1.3 2 Sur 7 Sudeste 0 -- -- 91
2019-02-21 06:00:00 -1.2 3 Sudeste 6 Sur 0 -- -- 92
2019-02-21 05:00:00 -1.2 2 Sur 7 Sudeste 0 -- -- 93
2019-02-21 04:00:00 -0.7 3 Sur 4 Sur 0 -- -- 95
2019-02-21 03:00:00 0.1 3 Sur 5 Sudeste 0 -- -- 95
2019-02-21 02:00:00 0.6 2 Sur 5 Sur 0 -- -- 92
2019-02-21 01:00:00 1.4 3 Sudeste 5 Sudeste 0 -- -- 91
2019-02-21 00:00:00 3.5 2 Sur 8 Sudeste 0 -- -- 87
2019-02-20 23:00:00 3.4 3 Sur 6 Sudeste 0 -- -- 85
2019-02-20 22:00:00 5.8 4 Sur 9 Sudeste 0 -- -- 80
2019-02-20 21:00:00 5.8 4 Sudoeste 7 Sudoeste 0 -- -- 81
2019-02-20 20:00:00 5 3 Sudoeste 5 Sudoeste 0 -- -- 73
2019-02-20 19:00:00 10.4 3 Oeste 16 Oeste 0 -- -- 55
2019-02-20 18:00:00 12.6 9 Oeste 20 Oeste 0 -- -- 47
2019-02-20 17:00:00 13.4 9 Oeste 22 Sudoeste 0 -- -- 46
2019-02-20 16:00:00 13.2 11 Sudoeste 23 Sudoeste 0 -- -- 46
2019-02-20 15:00:00 13.2 10 Sudoeste 22 Sudoeste 0 -- -- 47
2019-02-20 14:00:00 12.9 11 Sudoeste 26 Sudoeste 0 -- -- 50
2019-02-20 13:00:00 11.9 14 Sudoeste 22 Oeste 0 -- -- 56
2019-02-20 12:00:00 10.3 6 Oeste 16 Sudoeste 0 -- -- 66
2019-02-20 11:00:00 7.1 2 Norte 5 Norte 0 -- -- 86
2019-02-20 10:00:00 3.7 0 Calma 5 Noroeste 0 -- -- 95
2019-02-20 09:00:00 -0.2 0 Calma 4 Sur 0 -- -- 98
2019-02-20 08:00:00 -0.5 3 Sur 6 Sur 0 -- -- 96
2019-02-20 07:00:00 0.4 3 Sudeste 6 Sur 0 -- -- 94
2019-02-20 06:00:00 1.2 4 Sur 6 Sur 0 -- -- 98
2019-02-20 05:00:00 1.3 4 Sur 6 Sur 0 -- -- 95
2019-02-20 04:00:00 2 2 Sur 6 Sudeste 0 -- -- 94
2019-02-20 03:00:00 3 2 Sur 7 Sur 0.2 -- -- 91
2019-02-20 02:00:00 4.6 3 Sur 6 Sur 0 -- -- 92
2019-02-20 01:00:00 4.4 0 Calma 7 Sur 0.2 -- -- 92
2019-02-20 00:00:00 2.8 0 Calma 6 Sur 0 -- -- 90